Time;durP1;ratioP1;P1;durP2;ratioP2;P2;SDS_P1;SDS_P2;PMS_P1;PMS_P2;Temp;Humidity;BMP_temperature;BMP_pressure;BME280_temperature;BME280_humidity;BME280_pressure;Samples;Min_cycle;Max_cycle;Signal;HPM_P1;HPM_P2
2020/12/14 00:00:18;;;;;;;;;;;;;;;21.55;47.11;99476.56;3134387;27;115741;-56
2020/12/14 00:01:49;;;;;;;;;;;;;;;21.55;46.46;99481.34;3120819;27;116104;-56
2020/12/14 00:03:21;;;;;;;;;;;;;;;21.54;46.25;99472.09;3128959;27;116007;-56
2020/12/14 00:04:54;;;;;;;;;;;;;;;21.52;46.60;99471.66;3120831;27;114502;-56
2020/12/14 00:06:25;;;;;;;;;;;;;;;21.51;46.74;99458.75;3117155;27;114942;-56
2020/12/14 00:07:56;;;;;;;;;;;;;;;21.51;46.62;99460.75;3129252;27;117912;-56
2020/12/14 00:09:31;;;;;;;;;;;;;;;21.50;46.69;99464.72;3132268;27;117449;-56
2020/12/14 00:11:06;;;;;;;;;;;;;;;21.49;46.56;99463.06;3120888;27;116331;-56
2020/12/14 00:12:37;;;;;;;;;;;;;;;21.47;46.70;99457.81;3133876;27;115410;-56
2020/12/14 00:14:08;;;;;;;;;;;;;;;21.47;46.78;99460.63;3133291;27;113859;-56
2020/12/14 00:15:39;;;;;;;;;;;;;;;21.46;46.65;99461.78;3134036;27;114449;-61
2020/12/14 00:17:10;;;;;;;;;;;;;;;21.46;46.72;99452.53;3134907;27;114066;-60
2020/12/14 00:18:42;;;;;;;;;;;;;;;21.45;46.58;99454.53;3128317;27;114001;-61
2020/12/14 00:20:13;;;;;;;;;;;;;;;21.44;46.77;99457.72;3133029;27;114638;-61
2020/12/14 00:21:45;;;;;;;;;;;;;;;21.42;46.91;99446.81;3134955;27;113887;-61
2020/12/14 00:23:16;;;;;;;;;;;;;;;21.41;46.84;99449.97;3132496;27;113936;-61
2020/12/14 00:24:47;;;;;;;;;;;;;;;21.40;46.70;99454.75;3134183;27;114050;-62
2020/12/14 00:26:20;;;;;;;;;;;;;;;21.39;46.62;99450.34;3132652;27;117618;-61
2020/12/14 00:27:51;;;;;;;;;;;;;;;21.38;46.81;99445.88;3133112;27;113870;-61
2020/12/14 00:29:22;;;;;;;;;;;;;;;21.38;46.62;99436.63;3132933;27;114222;-60
2020/12/14 00:30:53;;;;;;;;;;;;;;;21.37;46.63;99437.78;3134986;27;113848;-61
2020/12/14 00:32:25;;;;;;;;;;;;;;;21.36;46.78;99430.53;3134339;27;114164;-61
2020/12/14 00:33:56;;;;;;;;;;;;;;;21.36;46.71;99433.34;3137555;27;114268;-61
2020/12/14 00:35:28;;;;;;;;;;;;;;;21.32;46.74;99433.22;3134197;27;115995;-60
2020/12/14 00:36:59;;;;;;;;;;;;;;;21.33;46.87;99440.50;3134219;27;115174;-60
2020/12/14 00:38:30;;;;;;;;;;;;;;;21.32;46.79;99444.47;3131647;27;114720;-61
2020/12/14 00:40:05;;;;;;;;;;;;;;;21.28;47.28;99435.91;3133512;27;115905;-61
2020/12/14 00:41:36;;;;;;;;;;;;;;;21.29;47.17;99445.16;3134529;27;114719;-61
2020/12/14 00:43:07;;;;;;;;;;;;;;;21.26;47.24;99435.44;3134148;27;114235;-61
2020/12/14 00:44:38;;;;;;;;;;;;;;;21.26;47.11;99441.06;3133175;27;114454;-61
2020/12/14 00:46:10;;;;;;;;;;;;;;;21.25;46.80;99433.00;3134411;27;116548;-61
2020/12/14 00:47:42;;;;;;;;;;;;;;;21.25;46.82;99438.63;3133831;27;115180;-61
2020/12/14 00:49:13;;;;;;;;;;;;;;;21.23;47.16;99429.72;3129539;27;114114;-63
2020/12/14 00:50:47;;;;;;;;;;;;;;;21.22;46.92;99423.25;3133688;27;114600;-62
2020/12/14 00:52:18;;;;;;;;;;;;;;;21.22;46.96;99422.44;3133550;27;115157;-62
2020/12/14 00:53:49;;;;;;;;;;;;;;;21.21;47.38;99424.44;3130646;27;114563;-61
2020/12/14 00:55:21;;;;;;;;;;;;;;;21.19;47.46;99423.16;3131926;27;115160;-61
2020/12/14 00:56:52;;;;;;;;;;;;;;;21.18;47.31;99430.75;3120829;27;117757;-62
2020/12/14 00:58:23;;;;;;;;;;;;;;;21.18;47.02;99424.31;3127393;27;114589;-61
2020/12/14 00:59:59;;;;;;;;;;;;;;;21.16;47.41;99413.44;3119577;27;115333;-61
2020/12/14 01:01:30;;;;;;;;;;;;;;;21.15;47.08;99411.81;3130207;27;116260;-61
2020/12/14 01:03:01;;;;;;;;;;;;;;;21.13;47.25;99408.50;3134067;27;116032;-61
2020/12/14 01:04:33;;;;;;;;;;;;;;;21.12;47.20;99408.84;3133358;27;115681;-62
2020/12/14 01:06:04;;;;;;;;;;;;;;;21.12;47.19;99406.03;3119601;27;115191;-61
2020/12/14 01:07:35;;;;;;;;;;;;;;;21.11;47.07;99407.22;3129107;27;115802;-61
2020/12/14 01:09:06;;;;;;;;;;;;;;;21.09;47.20;99401.94;3131905;27;114342;-60
2020/12/14 01:10:38;;;;;;;;;;;;;;;21.09;47.39;99412.34;3134939;27;114787;-60
2020/12/14 01:12:09;;;;;;;;;;;;;;;21.09;47.29;99412.34;3135336;27;115118;-59
2020/12/14 01:13:40;;;;;;;;;;;;;;;21.07;47.28;99417.50;3121717;27;114883;-59
2020/12/14 01:15:11;;;;;;;;;;;;;;;21.05;47.52;99425.44;3130543;27;114663;-58
2020/12/14 01:16:45;;;;;;;;;;;;;;;21.07;47.39;99428.72;3136264;27;117824;-59
2020/12/14 01:18:17;;;;;;;;;;;;;;;21.04;47.37;99435.03;3134857;27;116426;-60
2020/12/14 01:19:48;;;;;;;;;;;;;;;21.04;47.11;99435.84;3131071;27;114293;-59
2020/12/14 01:21:22;;;;;;;;;;;;;;;21.01;47.35;99430.13;3135690;27;114740;-60
2020/12/14 01:22:53;;;;;;;;;;;;;;;21.01;47.44;99441.34;3134243;27;114753;-62
2020/12/14 01:24:24;;;;;;;;;;;;;;;21.00;47.62;99437.72;3134738;27;114130;-61
2020/12/14 01:25:55;;;;;;;;;;;;;;;20.99;47.45;99424.84;3133632;27;114298;-61
2020/12/14 01:27:27;;;;;;;;;;;;;;;20.97;47.81;99429.19;3135444;27;113818;-62
2020/12/14 01:28:58;;;;;;;;;;;;;;;20.97;47.41;99430.00;3135596;27;114271;-62
2020/12/14 01:30:29;;;;;;;;;;;;;;;20.97;47.71;99430.00;3134514;27;114763;-59
2020/12/14 01:32:00;;;;;;;;;;;;;;;20.96;47.69;99433.16;3130646;27;114663;-59
2020/12/14 01:33:31;;;;;;;;;;;;;;;20.95;47.88;99442.72;3134479;27;114048;-60
2020/12/14 01:35:05;;;;;;;;;;;;;;;20.95;47.66;99437.94;3132390;27;114043;-59
2020/12/14 01:36:36;;;;;;;;;;;;;;;20.95;48.08;99432.31;3125043;27;114695;-61
2020/12/14 01:38:07;;;;;;;;;;;;;;;20.96;47.97;99438.75;3134950;27;114275;-61
2020/12/14 01:39:41;;;;;;;;;;;;;;;20.95;47.90;99442.72;3135113;27;114487;-61
2020/12/14 01:41:12;;;;;;;;;;;;;;;20.92;48.14;99438.66;3132360;27;114490;-61
2020/12/14 01:42:50;;;;;;;;;;;;;;;20.93;47.90;99431.88;3135522;27;115274;-61
2020/12/14 01:44:21;;;;;;;;;;;;;;;20.93;47.83;99428.25;3135018;27;115443;-61
2020/12/14 01:45:52;;;;;;;;;;;;;;;20.94;47.84;99435.50;3134456;27;115318;-60
2020/12/14 01:47:30;;;;;;;;;;;;;;;20.91;47.89;99428.56;3134894;27;115527;-60
2020/12/14 01:49:01;;;;;;;;;;;;;;;20.91;47.75;99436.19;3132702;27;115409;-60
2020/12/14 01:50:33;;;;;;;;;;;;;;;20.90;48.09;99437.34;3134432;27;115021;-60
2020/12/14 01:52:04;;;;;;;;;;;;;;;20.90;47.65;99438.16;3136304;27;117017;-59
2020/12/14 01:53:36;;;;;;;;;;;;;;;20.88;48.03;99434.06;3119548;27;115792;-59
2020/12/14 01:55:09;;;;;;;;;;;;;;;20.88;48.13;99437.72;3129763;27;114460;-60
2020/12/14 01:56:40;;;;;;;;;;;;;;;20.86;47.97;99438.03;3134271;27;114201;-61
2020/12/14 01:58:11;;;;;;;;;;;;;;;20.86;48.11;99432.44;3134121;27;114497;-60
2020/12/14 01:59:42;;;;;;;;;;;;;;;20.86;47.97;99431.59;3134333;27;115124;-59
2020/12/14 02:01:14;;;;;;;;;;;;;;;20.83;48.07;99424.72;3138996;27;114574;-59
2020/12/14 02:02:45;;;;;;;;;;;;;;;20.85;47.96;99427.16;3135141;27;115818;-61
2020/12/14 02:04:17;;;;;;;;;;;;;;;20.84;47.85;99429.16;3134826;27;115825;-60
2020/12/14 02:05:48;;;;;;;;;;;;;;;20.81;47.94;99435.44;3135764;27;114631;-59
2020/12/14 02:07:19;;;;;;;;;;;;;;;20.76;48.04;99441.28;3121693;27;114621;-59
2020/12/14 02:08:50;;;;;;;;;;;;;;;20.74;47.81;99440.00;3123194;27;114910;-60
2020/12/14 02:10:21;;;;;;;;;;;;;;;20.75;47.83;99445.28;3134331;27;114881;-60
2020/12/14 02:11:52;;;;;;;;;;;;;;;20.75;47.74;99448.09;3135639;27;114590;-60
2020/12/14 02:13:24;;;;;;;;;;;;;;;20.74;47.79;99443.63;3134117;27;115139;-59
2020/12/14 02:14:57;;;;;;;;;;;;;;;20.74;47.80;99442.81;3121591;27;114570;-60
2020/12/14 02:16:28;;;;;;;;;;;;;;;20.73;47.99;99447.59;3131638;27;115764;-60
2020/12/14 02:17:59;;;;;;;;;;;;;;;20.71;47.92;99451.94;3135057;27;115073;-59
2020/12/14 02:19:31;;;;;;;;;;;;;;;20.70;48.13;99447.47;3135119;27;115709;-59
2020/12/14 02:21:02;;;;;;;;;;;;;;;20.69;47.96;99449.47;3134362;27;114841;-59
2020/12/14 02:22:34;;;;;;;;;;;;;;;20.68;47.96;99449.81;3124466;27;114812;-60
2020/12/14 02:24:12;;;;;;;;;;;;;;;20.68;47.62;99450.63;3128813;27;114216;-60
2020/12/14 02:25:43;;;;;;;;;;;;;;;20.67;48.16;99436.97;3134293;27;114490;-62
2020/12/14 02:27:14;;;;;;;;;;;;;;;20.64;47.89;99441.25;3135648;27;113796;-63
2020/12/14 02:28:45;;;;;;;;;;;;;;;20.64;47.97;99432.84;3135107;27;114388;-63
2020/12/14 02:30:16;;;;;;;;;;;;;;;20.62;48.47;99425.94;3134981;27;114027;-61
2020/12/14 02:31:47;;;;;;;;;;;;;;;20.60;48.15;99426.28;3117898;27;113847;-61
2020/12/14 02:33:18;;;;;;;;;;;;;;;20.59;48.25;99424.63;3119817;27;113912;-61
2020/12/14 02:34:50;;;;;;;;;;;;;;;20.59;48.21;99423.81;3135487;27;114112;-62
2020/12/14 02:36:21;;;;;;;;;;;;;;;20.58;48.13;99430.63;3135848;27;114280;-61
2020/12/14 02:37:52;;;;;;;;;;;;;;;20.57;48.08;99432.59;3120637;27;114721;-59
2020/12/14 02:39:23;;;;;;;;;;;;;;;20.56;48.27;99424.50;3129641;27;114064;-61
2020/12/14 02:40:54;;;;;;;;;;;;;;;20.57;48.13;99428.97;3134656;27;113899;-59
2020/12/14 02:42:26;;;;;;;;;;;;;;;20.55;47.83;99428.47;3135420;27;113797;-59
2020/12/14 02:43:57;;;;;;;;;;;;;;;20.53;47.92;99419.59;3132592;27;114168;-60
2020/12/14 02:45:36;;;;;;;;;;;;;;;20.52;48.19;99406.72;3134906;27;113673;-60
2020/12/14 02:47:08;;;;;;;;;;;;;;;20.54;48.04;99430.47;3135421;27;114620;-60
2020/12/14 02:48:39;;;;;;;;;;;;;;;20.52;48.09;99407.56;3134963;27;115053;-60
2020/12/14 02:50:13;;;;;;;;;;;;;;;20.50;48.14;99414.66;3134944;27;114103;-60
2020/12/14 02:51:44;;;;;;;;;;;;;;;20.50;47.99;99404.25;3135813;27;115277;-61
2020/12/14 02:53:15;;;;;;;;;;;;;;;20.48;48.34;99412.22;3119977;27;114353;-60
2020/12/14 02:54:46;;;;;;;;;;;;;;;20.47;48.24;99404.97;3130856;27;114179;-60
2020/12/14 02:56:19;;;;;;;;;;;;;;;20.44;48.26;99410.44;3126996;27;115061;-60
2020/12/14 02:57:50;;;;;;;;;;;;;;;20.45;48.39;99412.91;3133599;27;114657;-60
2020/12/14 02:59:22;;;;;;;;;;;;;;;20.43;48.32;99415.25;3134680;27;115305;-60
2020/12/14 03:00:53;;;;;;;;;;;;;;;20.41;48.44;99400.72;3134955;27;114299;-60
2020/12/14 03:02:24;;;;;;;;;;;;;;;20.43;48.23;99409.63;3120805;27;115091;-61
2020/12/14 03:03:55;;;;;;;;;;;;;;;20.41;48.35;99407.16;3130646;27;115234;-61
2020/12/14 03:05:26;;;;;;;;;;;;;;;20.40;48.37;99399.91;3133612;27;114632;-61
2020/12/14 03:06:58;;;;;;;;;;;;;;;20.39;48.66;99389.88;3138672;27;114182;-59
2020/12/14 03:08:29;;;;;;;;;;;;;;;20.38;48.77;99405.06;3132811;27;114943;-59
2020/12/14 03:10:00;;;;;;;;;;;;;;;20.38;48.64;99396.63;3120611;27;115383;-59
2020/12/14 03:11:31;;;;;;;;;;;;;;;20.36;48.53;99386.91;3123856;27;115900;-59
2020/12/14 03:13:02;;;;;;;;;;;;;;;20.35;48.48;99390.91;3127833;27;114474;-59
2020/12/14 03:14:33;;;;;;;;;;;;;;;20.32;48.46;99388.78;3134728;27;115958;-60
2020/12/14 03:16:04;;;;;;;;;;;;;;;20.33;48.71;99391.25;3134645;27;115824;-60
2020/12/14 03:17:35;;;;;;;;;;;;;;;20.33;48.72;99391.25;3122015;27;115867;-60
2020/12/14 03:19:06;;;;;;;;;;;;;;;20.32;48.84;99389.59;3132711;27;115766;-60
2020/12/14 03:20:37;;;;;;;;;;;;;;;20.32;48.59;99388.78;3134918;27;115779;-60
2020/12/14 03:22:09;;;;;;;;;;;;;;;20.31;48.49;99384.31;3134851;27;114667;-61
2020/12/14 03:23:40;;;;;;;;;;;;;;;20.30;48.83;99389.13;3132423;27;114764;-62
2020/12/14 03:25:11;;;;;;;;;;;;;;;20.29;48.74;99383.84;3134342;27;115946;-62
2020/12/14 03:26:42;;;;;;;;;;;;;;;20.29;48.57;99393.06;3135183;27;115004;-60
2020/12/14 03:28:13;;;;;;;;;;;;;;;20.29;48.61;99386.63;3137839;27;115910;-60
2020/12/14 03:29:44;;;;;;;;;;;;;;;20.29;48.55;99397.84;3134502;27;114607;-60
2020/12/14 03:31:15;;;;;;;;;;;;;;;20.27;48.56;99384.16;3133876;27;114073;-60
2020/12/14 03:32:46;;;;;;;;;;;;;;;20.27;48.57;99388.94;3134921;27;113939;-60
2020/12/14 03:34:18;;;;;;;;;;;;;;;20.26;48.88;99384.53;3134109;27;114333;-60
2020/12/14 03:35:49;;;;;;;;;;;;;;;20.25;48.95;99380.06;3134768;27;114261;-61
2020/12/14 03:37:20;;;;;;;;;;;;;;;20.26;48.68;99384.53;3134752;27;114361;-60
2020/12/14 03:38:52;;;;;;;;;;;;;;;20.25;48.80;99386.50;3118557;27;114110;-60
2020/12/14 03:40:24;;;;;;;;;;;;;;;20.25;49.01;99388.50;3123510;27;114602;-60
2020/12/14 03:41:55;;;;;;;;;;;;;;;20.22;49.02;99387.19;3126995;27;113916;-60
2020/12/14 03:43:26;;;;;;;;;;;;;;;20.20;49.03;99389.53;3133823;27;114289;-60
2020/12/14 03:44:57;;;;;;;;;;;;;;;20.22;48.94;99391.97;3133257;27;113830;-60
2020/12/14 03:46:31;;;;;;;;;;;;;;;20.21;49.19;99390.34;3126399;27;114217;-60
2020/12/14 03:48:03;;;;;;;;;;;;;;;20.19;49.26;99390.69;3133465;27;113868;-60
2020/12/14 03:49:34;;;;;;;;;;;;;;;20.18;49.24;99385.41;3137354;27;114172;-59
2020/12/14 03:51:07;;;;;;;;;;;;;;;20.18;49.21;99393.81;3135021;27;115162;-61
2020/12/14 03:52:38;;;;;;;;;;;;;;;20.18;49.41;99391.84;3134664;27;114164;-60
2020/12/14 03:54:09;;;;;;;;;;;;;;;20.18;49.21;99385.41;3133417;27;115191;-60
2020/12/14 03:55:40;;;;;;;;;;;;;;;20.17;49.22;99395.81;3127904;27;114852;-60
2020/12/14 03:57:12;;;;;;;;;;;;;;;20.16;49.02;99388.56;3124274;27;115182;-60
2020/12/14 03:58:43;;;;;;;;;;;;;;;20.15;49.40;99386.09;3134037;27;114786;-60
2020/12/14 04:00:14;;;;;;;;;;;;;;;20.14;49.59;99390.06;3135426;27;114151;-56
2020/12/14 04:01:45;;;;;;;;;;;;;;;20.14;49.40;99392.88;3130880;27;114090;-55
2020/12/14 04:03:16;;;;;;;;;;;;;;;20.13;49.48;99397.66;3134182;27;115323;-55
2020/12/14 04:04:47;;;;;;;;;;;;;;;20.12;49.54;99387.63;3134688;27;115201;-55
2020/12/14 04:06:19;;;;;;;;;;;;;;;20.12;49.58;99395.22;3135218;27;116168;-55
2020/12/14 04:07:50;;;;;;;;;;;;;;;20.12;49.59;99423.25;3133327;27;115061;-56
2020/12/14 04:09:21;;;;;;;;;;;;;;;20.09;49.81;99440.75;3133887;27;115097;-56
2020/12/14 04:10:53;;;;;;;;;;;;;;;20.10;49.72;99439.59;3137502;27;115847;-56
2020/12/14 04:12:24;;;;;;;;;;;;;;;20.09;49.83;99444.38;3134469;27;114717;-55
2020/12/14 04:13:55;;;;;;;;;;;;;;;20.10;49.74;99451.63;3133117;27;115113;-56
2020/12/14 04:15:26;;;;;;;;;;;;;;;20.10;49.81;99456.41;3135195;27;114778;-56
2020/12/14 04:16:57;;;;;;;;;;;;;;;20.06;50.17;99447.88;3134051;27;115361;-55
2020/12/14 04:18:28;;;;;;;;;;;;;;;20.05;50.03;99451.00;3132449;27;115101;-60
2020/12/14 04:19:59;;;;;;;;;;;;;;;20.05;50.02;99451.81;3134870;27;115853;-60
2020/12/14 04:21:30;;;;;;;;;;;;;;;20.03;49.94;99445.75;3124923;27;114686;-58
2020/12/14 04:23:01;;;;;;;;;;;;;;;20.03;49.75;99456.16;3131789;27;116456;-58
2020/12/14 04:24:33;;;;;;;;;;;;;;;20.01;49.81;99466.88;3133454;27;116068;-60
2020/12/14 04:26:05;;;;;;;;;;;;;;;19.99;49.82;99482.03;3133135;27;117557;-59
2020/12/14 04:27:36;;;;;;;;;;;;;;;19.98;49.65;99474.00;3116859;27;114583;-59
2020/12/14 04:29:07;;;;;;;;;;;;;;;19.98;49.77;99480.44;3116142;27;115323;-59
2020/12/14 04:30:38;;;;;;;;;;;;;;;19.95;50.04;99483.88;3129807;27;115680;-59
2020/12/14 04:32:09;;;;;;;;;;;;;;;19.97;49.95;99475.97;3133523;27;115517;-59
2020/12/14 04:33:41;;;;;;;;;;;;;;;19.94;49.96;99471.03;3136707;27;115809;-59
2020/12/14 04:35:12;;;;;;;;;;;;;;;19.95;50.01;99461.47;3133204;27;114269;-61
2020/12/14 04:36:46;;;;;;;;;;;;;;;19.94;49.92;99476.63;3134480;27;114243;-60
2020/12/14 04:38:18;;;;;;;;;;;;;;;19.93;49.77;99472.22;3132174;27;113931;-60
2020/12/14 04:39:49;;;;;;;;;;;;;;;19.92;49.87;99478.16;3119644;27;114732;-60
2020/12/14 04:41:21;;;;;;;;;;;;;;;19.92;50.02;99470.56;3126114;27;114473;-60
2020/12/14 04:42:54;;;;;;;;;;;;;;;19.91;49.86;99459.69;3125899;27;114202;-60
2020/12/14 04:44:25;;;;;;;;;;;;;;;19.90;50.03;99447.66;3135949;27;114627;-60
2020/12/14 04:45:59;;;;;;;;;;;;;;;19.90;49.87;99455.22;3135163;27;114184;-60
2020/12/14 04:47:31;;;;;;;;;;;;;;;19.90;49.90;99444.84;3134576;27;114010;-60
2020/12/14 04:49:03;;;;;;;;;;;;;;;19.88;49.65;99438.78;3133334;27;113841;-60
2020/12/14 04:50:35;;;;;;;;;;;;;;;19.88;49.65;99429.53;3137151;27;114678;-60
2020/12/14 04:52:07;;;;;;;;;;;;;;;19.87;49.80;99416.69;3137220;27;113912;-60
2020/12/14 04:53:40;;;;;;;;;;;;;;;19.86;49.75;99401.00;3133838;27;114394;-60
2020/12/14 04:55:11;;;;;;;;;;;;;;;19.84;50.00;99408.97;3126153;27;113929;-55
2020/12/14 04:56:46;;;;;;;;;;;;;;;19.83;49.71;99430.56;3119423;27;114576;-56
2020/12/14 04:58:18;;;;;;;;;;;;;;;19.83;49.99;99436.16;3134403;27;114249;-56
2020/12/14 04:59:50;;;;;;;;;;;;;;;19.84;49.77;99440.63;3125660;27;115186;-56
2020/12/14 05:01:22;;;;;;;;;;;;;;;19.84;49.96;99445.41;3133652;27;114149;-56
2020/12/14 05:02:57;;;;;;;;;;;;;;;19.82;50.09;99453.31;3128041;27;115491;-55
2020/12/14 05:04:28;;;;;;;;;;;;;;;19.82;50.08;99440.13;3130612;27;114672;-56
2020/12/14 05:05:59;;;;;;;;;;;;;;;19.82;50.13;99444.91;3123489;27;115154;-56
2020/12/14 05:07:37;;;;;;;;;;;;;;;19.80;50.06;99450.88;3132304;27;114171;-55
2020/12/14 05:09:15;;;;;;;;;;;;;;;19.82;50.12;99464.53;3135019;27;114384;-55
2020/12/14 05:10:46;;;;;;;;;;;;;;;19.80;50.18;99476.09;3136149;27;115839;-55
2020/12/14 05:12:19;;;;;;;;;;;;;;;19.80;50.26;99473.28;3136930;27;114393;-55
2020/12/14 05:13:51;;;;;;;;;;;;;;;19.79;50.36;99468.00;3132987;27;115166;-55
2020/12/14 05:15:24;;;;;;;;;;;;;;;19.78;50.34;99461.59;3120933;27;114996;-54
2020/12/14 05:16:55;;;;;;;;;;;;;;;19.77;50.29;99459.13;3135657;27;114722;-55
2020/12/14 05:18:27;;;;;;;;;;;;;;;19.78;50.19;99458.78;3134716;27;114717;-55
2020/12/14 05:19:58;;;;;;;;;;;;;;;19.77;50.17;99470.31;3135895;27;115455;-55
2020/12/14 05:21:44;;;;;;;;;;;;;;;19.76;50.31;99469.50;3136107;27;115008;-55
2020/12/14 05:23:15;;;;;;;;;;;;;;;19.75;50.30;99465.06;3134285;27;114553;-55
2020/12/14 05:24:47;;;;;;;;;;;;;;;19.75;50.40;99475.47;3135201;27;114682;-55
2020/12/14 05:26:18;;;;;;;;;;;;;;;19.75;50.15;99476.28;3135038;27;115062;-55
2020/12/14 05:27:59;;;;;;;;;;;;;;;19.73;50.26;99478.59;3135898;27;116044;-54
2020/12/14 05:29:31;;;;;;;;;;;;;;;19.76;50.25;99480.72;3136036;27;115749;-55
2020/12/14 05:31:02;;;;;;;;;;;;;;;19.81;50.88;99482.50;3118497;27;114815;-55
2020/12/14 05:32:33;;;;;;;;;;;;;;;19.85;51.04;99489.88;3131768;27;115304;-55
2020/12/14 05:34:12;;;;;;;;;;;;;;;19.88;50.87;99494.81;3135528;27;116519;-55
2020/12/14 05:35:44;;;;;;;;;;;;;;;19.91;51.27;99499.75;3134771;27;115773;-55
2020/12/14 05:37:15;;;;;;;;;;;;;;;19.95;51.40;99506.31;3135515;27;115845;-55
2020/12/14 05:38:46;;;;;;;;;;;;;;;19.98;51.21;99511.25;3136958;27;115963;-55
2020/12/14 05:40:18;;;;;;;;;;;;;;;20.02;51.19;99507.75;3135940;27;114341;-55
2020/12/14 05:41:49;;;;;;;;;;;;;;;20.06;51.06;99511.53;3135574;27;114487;-55
2020/12/14 05:43:21;;;;;;;;;;;;;;;20.10;51.86;99507.72;3135108;27;114118;-56
2020/12/14 05:44:52;;;;;;;;;;;;;;;20.13;51.56;99509.00;3136054;27;113998;-55
2020/12/14 05:46:23;;;;;;;;;;;;;;;20.17;51.34;99519.19;3135843;27;114092;-55
2020/12/14 05:47:57;;;;;;;;;;;;;;;20.19;51.59;99519.69;3135679;27;118426;-55
2020/12/14 05:49:29;;;;;;;;;;;;;;;20.23;51.50;99514.19;3135476;27;114063;-55
2020/12/14 05:51:01;;;;;;;;;;;;;;;20.25;51.64;99509.91;3136246;27;114465;-56
2020/12/14 05:52:33;;;;;;;;;;;;;;;20.31;51.25;99510.53;3135677;27;113949;-59
2020/12/14 05:54:11;;;;;;;;;;;;;;;20.35;51.30;99517.94;3134602;27;114450;-56
2020/12/14 05:55:44;;;;;;;;;;;;;;;20.38;51.14;99520.06;3134840;27;115413;-55
2020/12/14 05:57:26;;;;;;;;;;;;;;;20.44;51.25;99517.06;3135480;27;114400;-55
2020/12/14 05:59:02;;;;;;;;;;;;;;;20.47;51.05;99528.41;3134627;27;114143;-55
2020/12/14 06:00:36;;;;;;;;;;;;;;;20.51;50.81;99523.75;3136063;27;114056;-55
2020/12/14 06:02:07;;;;;;;;;;;;;;;20.55;50.33;99521.91;3139208;27;114371;-55
2020/12/14 06:03:38;;;;;;;;;;;;;;;20.60;50.63;99527.31;3121193;27;115170;-56
2020/12/14 06:05:09;;;;;;;;;;;;;;;20.65;50.56;99534.69;3119076;27;115555;-55
2020/12/14 06:06:45;;;;;;;;;;;;;;;20.67;50.16;99533.16;3134164;27;114814;-55
2020/12/14 06:08:20;;;;;;;;;;;;;;;20.71;49.68;99531.34;3134206;27;115143;-55
2020/12/14 06:09:59;;;;;;;;;;;;;;;20.74;49.44;99535.44;3135360;27;114241;-55
2020/12/14 06:11:34;;;;;;;;;;;;;;;20.77;49.74;99535.56;3130179;27;114431;-55
2020/12/14 06:13:11;;;;;;;;;;;;;;;20.81;49.34;99535.69;3135719;27;115318;-55
2020/12/14 06:14:43;;;;;;;;;;;;;;;20.85;49.34;99545.06;3135324;27;115607;-55
2020/12/14 06:16:20;;;;;;;;;;;;;;;20.88;49.15;99547.19;3121800;27;115240;-55
2020/12/14 06:17:53;;;;;;;;;;;;;;;20.92;48.97;99550.94;3131740;27;114937;-55
2020/12/14 06:19:24;;;;;;;;;;;;;;;20.96;48.89;99556.69;3134324;27;114480;-55
2020/12/14 06:20:55;;;;;;;;;;;;;;;20.99;48.47;99547.56;3135924;27;115177;-55
2020/12/14 06:22:27;;;;;;;;;;;;;;;21.02;48.95;99556.16;3135619;27;114191;-55
2020/12/14 06:24:00;;;;;;;;;;;;;;;21.05;48.92;99561.06;3137689;27;115442;-55
2020/12/14 06:25:31;;;;;;;;;;;;;;;21.08;48.63;99563.16;3135555;27;115799;-55
2020/12/14 06:27:08;;;;;;;;;;;;;;;21.12;48.33;99557.69;3134735;27;115747;-55
2020/12/14 06:28:39;;;;;;;;;;;;;;;21.14;48.29;99563.81;3133750;27;115533;-54
2020/12/14 06:30:29;;;;;;;;;;;;;;;21.17;48.28;99558.31;3135241;27;115249;-55
2020/12/14 06:32:00;;;;;;;;;;;;;;;21.21;48.20;99550.03;3135521;27;115737;-55
2020/12/14 06:33:35;;;;;;;;;;;;;;;21.23;48.07;99556.13;3134652;27;115838;-55
2020/12/14 06:35:15;;;;;;;;;;;;;;;21.26;47.94;99552.59;3135531;27;114888;-55
2020/12/14 06:36:46;;;;;;;;;;;;;;;21.29;47.92;99549.94;3135176;27;114567;-55
2020/12/14 06:38:39;;;;;;;;;;;;;;;21.30;47.76;99548.75;3133115;27;114993;-55
2020/12/14 06:40:10;;;;;;;;;;;;;;;21.33;47.49;99555.69;3134945;27;116294;-55
2020/12/14 06:41:41;;;;;;;;;;;;;;;21.36;47.50;99562.56;3134362;27;114876;-55
2020/12/14 06:43:32;;;;;;;;;;;;;;;21.38;47.70;99552.66;3135166;27;115949;-54
2020/12/14 06:45:03;;;;;;;;;;;;;;;21.40;47.69;99555.91;3135755;27;114775;-54
2020/12/14 06:46:35;;;;;;;;;;;;;;;21.43;47.75;99558.03;3138896;27;115785;-54
2020/12/14 06:48:06;;;;;;;;;;;;;;;21.46;47.78;99560.16;3135095;27;114183;-54
2020/12/14 06:49:37;;;;;;;;;;;;;;;21.48;47.60;99557.81;3134528;27;114086;-54
2020/12/14 06:51:12;;;;;;;;;;;;;;;21.51;47.38;99553.47;3135408;27;114009;-54
2020/12/14 06:52:44;;;;;;;;;;;;;;;21.53;47.50;99570.84;3134799;27;113912;-55
2020/12/14 06:54:35;;;;;;;;;;;;;;;21.58;47.32;99564.94;3134727;27;114049;-54
2020/12/14 06:56:06;;;;;;;;;;;;;;;21.59;47.02;99573.06;3125423;27;114510;-54
2020/12/14 06:57:38;;;;;;;;;;;;;;;21.61;47.22;99569.91;3127339;27;114128;-55
2020/12/14 06:59:28;;;;;;;;;;;;;;;21.63;47.11;99573.16;3120539;27;114078;-54
2020/12/14 07:00:59;;;;;;;;;;;;;;;21.66;47.06;99578.94;3121075;27;114242;-55
2020/12/14 07:02:39;;;;;;;;;;;;;;;21.68;47.17;99576.56;3126646;27;114274;-55
2020/12/14 07:04:15;;;;;;;;;;;;;;;21.71;46.73;99581.50;3133991;27;114272;-54
2020/12/14 07:05:57;;;;;;;;;;;;;;;21.73;47.13;99581.16;3134928;27;114737;-55
2020/12/14 07:07:28;;;;;;;;;;;;;;;21.76;47.29;99576.84;3132250;27;114104;-56
2020/12/14 07:09:19;;;;;;;;;;;;;;;21.79;47.97;99581.75;3136538;27;114254;-56
2020/12/14 07:11:08;;;;;;;;;;;;;;;21.81;47.37;99582.19;3133697;27;115240;-56
2020/12/14 07:12:43;;;;;;;;;;;;;;;21.84;47.36;99578.72;3128693;27;114322;-56
2020/12/14 07:14:30;;;;;;;;;;;;;;;21.86;46.83;99582.78;3124819;27;115026;-55
2020/12/14 07:16:05;;;;;;;;;;;;;;;21.89;46.92;99575.66;3133337;27;114683;-56
2020/12/14 07:17:36;;;;;;;;;;;;;;;21.90;46.84;99582.91;3121139;27;114517;-56
2020/12/14 07:19:08;;;;;;;;;;;;;;;21.93;46.84;99576.63;3129510;27;115149;-57
2020/12/14 07:20:56;;;;;;;;;;;;;;;21.94;46.62;99581.88;3122919;27;114909;-55
2020/12/14 07:22:53;;;;;;;;;;;;;;;21.97;46.75;99586.00;3122983;27;114155;-55
2020/12/14 07:24:30;;;;;;;;;;;;;;;21.99;46.53;99590.09;3123737;27;115705;-54
2020/12/14 07:26:02;;;;;;;;;;;;;;;22.02;46.49;99585.78;3133535;27;115391;-54
2020/12/14 07:27:33;;;;;;;;;;;;;;;22.04;46.54;99586.22;3131580;27;116348;-54
2020/12/14 07:29:07;;;;;;;;;;;;;;;22.05;46.69;99583.06;3134715;27;114650;-55
2020/12/14 07:30:38;;;;;;;;;;;;;;;22.07;46.46;99580.75;3135133;27;115342;-54
2020/12/14 07:32:09;;;;;;;;;;;;;;;22.08;46.57;99578.72;3125346;27;115206;-54
2020/12/14 07:33:48;;;;;;;;;;;;;;;22.10;46.28;99585.66;3128720;27;116282;-54
2020/12/14 07:35:20;;;;;;;;;;;;;;;22.11;46.14;99581.66;3134576;27;115203;-54
2020/12/14 07:36:55;;;;;;;;;;;;;;;22.14;46.41;99591.38;3134840;27;115730;-54
2020/12/14 07:38:26;;;;;;;;;;;;;;;22.15;46.46;99588.22;3131919;27;114736;-54
2020/12/14 07:39:57;;;;;;;;;;;;;;;22.16;46.38;99584.25;3120508;27;114665;-54
2020/12/14 07:41:29;;;;;;;;;;;;;;;22.18;46.47;99587.53;3129298;27;115668;-54
2020/12/14 07:43:00;;;;;;;;;;;;;;;22.20;46.85;99592.81;3119172;27;115947;-54
2020/12/14 07:44:31;;;;;;;;;;;;;;;22.21;46.16;99588.00;3128790;27;114622;-54
2020/12/14 07:46:14;;;;;;;;;;;;;;;22.24;46.28;99595.72;3134848;27;116053;-55
2020/12/14 07:47:47;;;;;;;;;;;;;;;22.26;46.57;99590.56;3128445;27;114758;-54
2020/12/14 07:49:23;;;;;;;;;;;;;;;22.27;46.21;99618.34;3133817;27;114636;-54
2020/12/14 07:50:54;;;;;;;;;;;;;;;22.29;45.87;99603.94;3134145;27;114716;-54
2020/12/14 07:52:29;;;;;;;;;;;;;;;22.30;46.01;99602.75;3134938;27;115116;-55
2020/12/14 07:54:09;;;;;;;;;;;;;;;22.32;45.93;99606.03;3133591;27;115642;-55
2020/12/14 07:55:40;;;;;;;;;;;;;;;22.34;46.05;99615.78;3138325;27;116000;-56